Time;durP1;ratioP1;P1;durP2;ratioP2;P2;SDS_P1;SDS_P2;PMS_P1;PMS_P2;Temp;Humidity;BMP_temperature;BMP_pressure;BME280_temperature;BME280_humidity;BME280_pressure;Samples;Min_cycle;Max_cycle;Signal;HPM_P1;HPM_P2
2023/08/14 00:00:33;;;;;;;2.40;1.80;;;19.00;99.90;;;;;;5036597;28;20216;-76
2023/08/14 00:03:01;;;;;;;2.43;1.90;;;18.90;99.90;;;;;;5051768;28;20752;-74
2023/08/14 00:05:29;;;;;;;3.37;1.70;;;18.80;99.90;;;;;;5052380;28;20207;-77
2023/08/14 00:07:57;;;;;;;2.20;2.00;;;18.70;99.90;;;;;;5052187;28;20274;-76
2023/08/14 00:10:26;;;;;;;3.73;2.03;;;18.70;99.90;;;;;;5052093;28;20199;-76
2023/08/14 00:12:56;;;;;;;4.37;1.90;;;18.60;99.90;;;;;;5052015;28;20582;-78
2023/08/14 00:15:24;;;;;;;2.20;1.87;;;18.60;99.90;;;;;;5052813;28;20633;-76
2023/08/14 00:17:52;;;;;;;2.63;1.70;;;18.60;99.90;;;;;;5052079;28;20215;-78
2023/08/14 00:20:21;;;;;;;3.00;1.80;;;18.50;99.90;;;;;;5035054;28;20305;-76
2023/08/14 00:22:49;;;;;;;2.40;1.97;;;18.50;99.90;;;;;;5031816;28;20255;-77
2023/08/14 00:25:17;;;;;;;3.33;1.70;;;18.40;99.90;;;;;;5031860;28;20363;-76
2023/08/14 00:27:45;;;;;;;1.90;1.80;;;18.40;99.90;;;;;;5045244;28;20223;-78
2023/08/14 00:30:15;;;;;;;3.13;1.90;;;18.30;99.90;;;;;;5051771;28;20212;-77
2023/08/14 00:32:43;;;;;;;2.43;2.00;;;18.30;99.90;;;;;;5051639;28;20231;-77
2023/08/14 00:35:11;;;;;;;2.00;1.80;;;18.30;99.90;;;;;;5050700;28;20208;-77
2023/08/14 00:37:43;;;;;;;2.10;1.90;;;18.30;99.90;;;;;;5052232;28;20266;-76
2023/08/14 00:40:13;;;;;;;4.33;2.20;;;18.30;99.90;;;;;;5051697;28;20559;-75
2023/08/14 00:42:45;;;;;;;1.90;1.80;;;18.30;99.90;;;;;;5051411;28;20208;-77
2023/08/14 00:45:15;;;;;;;2.80;2.03;;;18.30;99.90;;;;;;5038552;28;20208;-78
2023/08/14 00:47:46;;;;;;;2.33;2.00;;;18.30;99.90;;;;;;5031765;28;20194;-78
2023/08/14 00:50:15;;;;;;;2.27;1.80;;;18.20;99.90;;;;;;5031639;28;20707;-77
2023/08/14 00:52:47;;;;;;;3.07;1.70;;;18.20;99.90;;;;;;5037905;28;20263;-76
2023/08/14 00:55:18;;;;;;;3.40;1.93;;;18.20;99.90;;;;;;5051540;28;20216;-78
2023/08/14 00:57:46;;;;;;;3.47;2.07;;;18.20;99.90;;;;;;5051670;28;20266;-79
2023/08/14 01:00:16;;;;;;;3.17;1.90;;;18.10;99.90;;;;;;5044552;28;20205;-75
2023/08/14 01:02:44;;;;;;;3.37;2.00;;;18.10;99.90;;;;;;5035477;28;20216;-76
2023/08/14 01:05:13;;;;;;;1.83;1.73;;;18.10;99.90;;;;;;5051684;28;20240;-76
2023/08/14 01:07:41;;;;;;;2.03;1.90;;;18.10;99.90;;;;;;5051253;28;20212;-78
2023/08/14 01:10:11;;;;;;;2.27;2.07;;;18.10;99.90;;;;;;5051273;28;20247;-78
2023/08/14 01:12:45;;;;;;;2.30;2.10;;;18.00;99.90;;;;;;5051390;28;20278;-76
2023/08/14 01:15:19;;;;;;;2.43;1.80;;;18.00;99.90;;;;;;5053781;28;20211;-77
2023/08/14 01:17:51;;;;;;;2.17;2.00;;;18.00;99.90;;;;;;5040697;28;20208;-77
2023/08/14 01:20:21;;;;;;;2.67;1.90;;;18.00;99.90;;;;;;5035230;28;20239;-77
2023/08/14 01:22:58;;;;;;;2.63;1.97;;;17.90;99.90;;;;;;5035131;28;20197;-78
2023/08/14 01:25:31;;;;;;;2.57;1.90;;;17.90;99.90;;;;;;5035761;28;20562;-76
2023/08/14 01:28:01;;;;;;;2.60;1.93;;;17.90;99.90;;;;;;5035472;28;20282;-74
2023/08/14 01:30:29;;;;;;;3.50;2.10;;;17.80;99.90;;;;;;5035626;28;20216;-77
2023/08/14 01:32:57;;;;;;;3.00;2.10;;;17.80;99.90;;;;;;5034581;28;20290;-76
2023/08/14 01:35:27;;;;;;;3.07;1.90;;;17.80;99.90;;;;;;5034841;28;20227;-77
2023/08/14 01:38:00;;;;;;;1.93;1.80;;;17.70;99.90;;;;;;5035312;28;20286;-77
2023/08/14 01:40:36;;;;;;;3.30;2.10;;;17.70;99.90;;;;;;5035496;28;20231;-77
2023/08/14 01:43:08;;;;;;;2.57;1.90;;;17.70;99.90;;;;;;5034762;28;20209;-74
2023/08/14 01:45:38;;;;;;;2.40;1.90;;;17.70;99.90;;;;;;5035958;28;20189;-75
2023/08/14 01:48:09;;;;;;;2.20;1.90;;;17.60;99.90;;;;;;5035708;28;20213;-76
2023/08/14 01:50:39;;;;;;;3.40;2.17;;;17.60;99.90;;;;;;5035933;28;20232;-74
2023/08/14 01:53:07;;;;;;;2.37;2.17;;;17.60;99.90;;;;;;5035940;28;20243;-73
2023/08/14 01:55:36;;;;;;;2.60;2.00;;;17.60;99.90;;;;;;5035481;28;20671;-74
2023/08/14 01:58:04;;;;;;;4.13;1.90;;;17.50;99.90;;;;;;5035344;28;20686;-74
2023/08/14 02:00:34;;;;;;;2.10;1.97;;;17.50;99.90;;;;;;5034610;28;20675;-73
2023/08/14 02:03:02;;;;;;;2.70;2.10;;;17.50;99.90;;;;;;5052771;28;20604;-75
2023/08/14 02:05:31;;;;;;;3.10;1.90;;;17.40;99.90;;;;;;5050304;28;20212;-75
2023/08/14 02:07:59;;;;;;;4.50;2.20;;;17.40;99.90;;;;;;5034557;28;20228;-75
2023/08/14 02:10:27;;;;;;;4.27;1.97;;;17.40;99.90;;;;;;5034600;28;20263;-76
2023/08/14 02:12:56;;;;;;;3.43;2.10;;;17.30;99.90;;;;;;5034328;28;20298;-76
2023/08/14 02:15:24;;;;;;;2.23;2.03;;;17.30;99.90;;;;;;5034781;28;20213;-77
2023/08/14 02:17:53;;;;;;;2.70;2.20;;;17.30;99.90;;;;;;5034514;28;20240;-76
2023/08/14 02:20:21;;;;;;;3.90;2.43;;;17.20;99.90;;;;;;5034018;28;20248;-77
2023/08/14 02:22:49;;;;;;;5.13;2.30;;;17.20;99.90;;;;;;5044024;28;20202;-76
2023/08/14 02:25:17;;;;;;;4.63;2.33;;;17.20;99.90;;;;;;5035000;28;20213;-78
2023/08/14 02:27:45;;;;;;;3.37;1.90;;;17.20;99.90;;;;;;5034350;28;20663;-76
2023/08/14 02:30:15;;;;;;;3.40;2.23;;;17.10;99.90;;;;;;5034481;28;20213;-75
2023/08/14 02:32:43;;;;;;;3.20;2.20;;;17.10;99.90;;;;;;5033472;28;20699;-75
2023/08/14 02:35:11;;;;;;;2.93;2.63;;;17.10;99.90;;;;;;5034476;28;20208;-77
2023/08/14 02:37:39;;;;;;;4.13;2.43;;;17.10;99.90;;;;;;5034292;28;20663;-77
2023/08/14 02:40:08;;;;;;;2.90;2.37;;;17.10;99.90;;;;;;5034806;28;20271;-77
2023/08/14 02:42:37;;;;;;;2.90;2.30;;;17.10;99.90;;;;;;5033823;28;20213;-77
2023/08/14 02:45:06;;;;;;;3.50;2.37;;;17.00;99.90;;;;;;5034302;28;20209;-76
2023/08/14 02:47:35;;;;;;;2.83;2.47;;;17.00;99.90;;;;;;5033727;28;20232;-77
2023/08/14 02:50:04;;;;;;;2.93;2.30;;;17.00;99.90;;;;;;5033481;28;20209;-78
2023/08/14 02:52:32;;;;;;;2.83;2.37;;;17.00;99.90;;;;;;5033587;28;20205;-78
2023/08/14 02:55:00;;;;;;;2.60;2.40;;;17.00;99.90;;;;;;5033505;28;20213;-77
2023/08/14 02:57:28;;;;;;;2.70;2.50;;;16.90;99.90;;;;;;5033769;28;20208;-77
2023/08/14 02:59:56;;;;;;;3.57;2.40;;;16.90;99.90;;;;;;5038150;28;20655;-77
2023/08/14 03:02:24;;;;;;;6.00;2.90;;;16.90;99.90;;;;;;5053488;28;20273;-79
2023/08/14 03:04:56;;;;;;;2.77;2.57;;;16.90;99.90;;;;;;5053444;28;20200;-78
2023/08/14 03:07:24;;;;;;;3.73;2.73;;;16.90;99.90;;;;;;5042482;28;20217;-78
2023/08/14 03:09:52;;;;;;;3.47;2.80;;;16.90;99.90;;;;;;5033402;28;20209;-76
2023/08/14 03:12:20;;;;;;;3.23;2.70;;;16.90;99.90;;;;;;5033148;28;20212;-74
2023/08/14 03:14:48;;;;;;;2.80;2.60;;;16.90;99.90;;;;;;5032810;28;20251;-78
2023/08/14 03:17:17;;;;;;;4.23;2.30;;;16.90;99.90;;;;;;5032948;28;20248;-77
2023/08/14 03:19:45;;;;;;;3.13;2.60;;;16.90;99.90;;;;;;5033431;28;20233;-78
2023/08/14 03:22:15;;;;;;;3.20;2.90;;;16.90;99.90;;;;;;5032687;28;20220;-76
2023/08/14 03:24:44;;;;;;;3.33;2.60;;;16.90;99.90;;;;;;5052639;28;20346;-74
2023/08/14 03:27:12;;;;;;;3.00;2.60;;;16.90;99.90;;;;;;5052855;28;20212;-78
2023/08/14 03:29:40;;;;;;;3.43;2.60;;;16.80;99.90;;;;;;5052454;28;20223;-75
2023/08/14 03:32:08;;;;;;;4.50;2.77;;;16.80;99.90;;;;;;5042147;28;20266;-76
2023/08/14 03:34:36;;;;;;;4.73;2.80;;;16.80;99.90;;;;;;5033030;28;20221;-79
2023/08/14 03:37:04;;;;;;;3.60;2.40;;;16.80;99.90;;;;;;5032013;28;20269;-79
2023/08/14 03:39:34;;;;;;;4.33;2.70;;;16.80;99.90;;;;;;5040348;28;20611;-75
2023/08/14 03:42:02;;;;;;;4.53;3.00;;;16.80;99.90;;;;;;5047049;28;20595;-76
2023/08/14 03:44:30;;;;;;;4.90;3.17;;;16.80;99.90;;;;;;5052021;28;20196;-78
2023/08/14 03:46:58;;;;;;;2.77;2.50;;;16.80;99.90;;;;;;5048179;28;20910;-78
2023/08/14 03:49:26;;;;;;;4.00;2.60;;;16.80;99.90;;;;;;5050399;28;20214;-78
2023/08/14 03:51:54;;;;;;;3.80;2.50;;;16.70;99.90;;;;;;5050257;28;20212;-77
2023/08/14 03:54:23;;;;;;;2.97;2.70;;;16.70;99.90;;;;;;5035574;28;20228;-79
2023/08/14 03:56:52;;;;;;;3.90;2.77;;;16.70;99.90;;;;;;5032309;28;20247;-78
2023/08/14 03:59:20;;;;;;;5.20;3.00;;;16.80;99.90;;;;;;5042783;28;20227;-78
2023/08/14 04:01:48;;;;;;;3.23;2.90;;;16.80;99.90;;;;;;5052334;28;20212;-78
2023/08/14 04:04:16;;;;;;;5.37;2.97;;;16.80;99.90;;;;;;5052450;28;20212;-78
2023/08/14 04:06:47;;;;;;;4.93;3.30;;;16.80;99.90;;;;;;5033574;28;20231;-75
2023/08/14 04:09:15;;;;;;;5.33;3.70;;;16.70;99.90;;;;;;5033057;28;20303;-78
2023/08/14 04:11:43;;;;;;;5.77;4.10;;;16.80;99.90;;;;;;5032449;28;20251;-76
2023/08/14 04:14:13;;;;;;;6.63;4.10;;;16.80;99.90;;;;;;5031816;28;20225;-78
2023/08/14 04:16:44;;;;;;;5.27;3.93;;;16.70;99.90;;;;;;5032215;28;20220;-77
2023/08/14 04:19:14;;;;;;;6.77;3.80;;;16.70;99.90;;;;;;5031912;28;20234;-77
2023/08/14 04:21:43;;;;;;;6.37;3.83;;;16.70;99.90;;;;;;5032395;28;20287;-80
2023/08/14 04:24:11;;;;;;;6.97;3.77;;;16.70;99.90;;;;;;5031797;28;20224;-78
2023/08/14 04:26:40;;;;;;;4.60;3.60;;;16.70;99.90;;;;;;5031655;28;20217;-75
2023/08/14 04:29:09;;;;;;;3.87;3.50;;;16.70;99.90;;;;;;5031594;28;20221;-75
2023/08/14 04:31:41;;;;;;;4.17;3.30;;;16.70;99.90;;;;;;5032378;28;20262;-74
2023/08/14 04:34:10;;;;;;;7.30;3.50;;;16.80;99.90;;;;;;5031785;28;20221;-75
2023/08/14 04:36:38;;;;;;;3.90;3.47;;;16.80;99.90;;;;;;5031452;28;20700;-75
2023/08/14 04:39:07;;;;;;;3.13;2.93;;;16.90;99.90;;;;;;5031509;28;20663;-74
2023/08/14 04:41:35;;;;;;;3.83;2.93;;;16.90;99.90;;;;;;5044674;28;20208;-74
2023/08/14 04:44:04;;;;;;;5.53;3.17;;;17.20;99.90;;;;;;5048544;28;20655;-74
2023/08/14 04:46:33;;;;;;;4.23;2.60;;;17.30;99.90;;;;;;5050920;28;20215;-75
2023/08/14 04:49:23;;;;;;;3.20;2.63;;;17.30;99.90;;;;;;5051568;28;20204;-76
2023/08/14 04:51:51;;;;;;;4.07;2.50;;;17.50;99.90;;;;;;5051938;28;20265;-75
2023/08/14 04:54:19;;;;;;;4.60;2.47;;;17.60;99.90;;;;;;5048646;28;20515;-75
2023/08/14 04:56:47;;;;;;;3.57;2.27;;;17.70;99.90;;;;;;5052234;28;20212;-75
2023/08/14 04:59:15;;;;;;;5.83;2.40;;;17.80;99.90;;;;;;5051844;28;20441;-75
2023/08/14 05:01:43;;;;;;;4.33;2.50;;;17.80;99.90;;;;;;5052094;28;20844;-75
2023/08/14 05:04:11;;;;;;;2.03;1.90;;;18.00;99.90;;;;;;5043390;28;20649;-75
2023/08/14 05:06:41;;;;;;;3.97;2.30;;;18.00;99.90;;;;;;5032469;28;20224;-74
2023/08/14 05:09:09;;;;;;;3.10;2.57;;;18.10;99.90;;;;;;5035753;28;20219;-74
2023/08/14 05:11:40;;;;;;;4.10;2.60;;;18.20;99.90;;;;;;5043847;28;20212;-76
2023/08/14 05:14:09;;;;;;;2.50;2.30;;;18.30;99.90;;;;;;5035922;28;20233;-73
2023/08/14 05:16:37;;;;;;;3.03;2.33;;;18.40;99.90;;;;;;5035248;28;20212;-77
2023/08/14 05:19:05;;;;;;;3.07;2.50;;;18.50;99.90;;;;;;5035549;28;20250;-74
2023/08/14 05:21:33;;;;;;;4.00;2.60;;;18.60;99.90;;;;;;5036442;28;20216;-73
2023/08/14 05:24:02;;;;;;;3.77;2.40;;;18.70;99.90;;;;;;5035204;28;20262;-73
2023/08/14 05:26:30;;;;;;;3.40;2.70;;;18.80;99.90;;;;;;5035557;28;20516;-74
2023/08/14 05:28:58;;;;;;;3.90;2.20;;;18.80;99.90;;;;;;5036387;28;20259;-74
2023/08/14 05:31:27;;;;;;;4.07;2.50;;;18.90;99.90;;;;;;5035351;28;20209;-73
2023/08/14 05:33:55;;;;;;;3.43;2.20;;;19.00;99.90;;;;;;5035155;28;20213;-74
2023/08/14 05:36:24;;;;;;;4.90;2.30;;;19.20;99.90;;;;;;5044307;28;20243;-74
2023/08/14 05:38:52;;;;;;;3.47;2.17;;;19.40;99.90;;;;;;5053176;28;20712;-74
2023/08/14 05:41:22;;;;;;;3.73;1.90;;;19.50;99.90;;;;;;5054885;28;20212;-75
2023/08/14 05:43:50;;;;;;;3.27;2.00;;;19.60;99.90;;;;;;5054274;28;20257;-75
2023/08/14 05:46:19;;;;;;;3.10;1.93;;;19.70;99.90;;;;;;5054781;28;20234;-74
2023/08/14 05:48:47;;;;;;;2.93;1.90;;;19.90;99.90;;;;;;5035068;28;20217;-74
2023/08/14 05:51:15;;;;;;;2.70;2.00;;;20.00;99.90;;;;;;5034758;28;20212;-74
2023/08/14 05:53:43;;;;;;;3.50;2.00;;;20.00;99.90;;;;;;5034354;28;20303;-74
2023/08/14 05:56:11;;;;;;;3.17;2.10;;;20.10;99.90;;;;;;5042574;28;20590;-74
2023/08/14 05:58:41;;;;;;;4.30;1.80;;;20.30;99.90;;;;;;5055353;28;20289;-74
2023/08/14 06:01:09;;;;;;;2.93;1.70;;;20.40;99.90;;;;;;5050771;28;20255;-75
2023/08/14 06:03:38;;;;;;;2.67;1.67;;;20.50;99.90;;;;;;5034526;28;20209;-74
2023/08/14 06:06:12;;;;;;;2.87;2.00;;;20.60;99.90;;;;;;5034350;28;20199;-75
2023/08/14 06:08:40;;;;;;;7.00;2.03;;;20.50;99.90;;;;;;5033964;28;20287;-75
2023/08/14 06:11:09;;;;;;;2.33;1.40;;;20.50;99.90;;;;;;5034533;28;20266;-73
2023/08/14 06:13:37;;;;;;;2.60;1.70;;;20.60;99.90;;;;;;5034399;28;20216;-73
2023/08/14 06:16:07;;;;;;;4.17;1.50;;;20.70;99.90;;;;;;5034939;28;20278;-73
2023/08/14 06:18:35;;;;;;;2.67;1.67;;;20.80;99.90;;;;;;5034260;28;20241;-74
2023/08/14 06:21:03;;;;;;;2.70;1.60;;;21.00;99.90;;;;;;5034316;28;20266;-74
2023/08/14 06:23:31;;;;;;;1.63;1.53;;;21.10;99.90;;;;;;5033888;28;20441;-74
2023/08/14 06:25:59;;;;;;;3.17;1.77;;;21.20;99.90;;;;;;5033871;28;20205;-75
2023/08/14 06:28:27;;;;;;;4.10;1.60;;;21.30;99.90;;;;;;5033977;28;20675;-75
2023/08/14 06:30:55;;;;;;;3.20;1.47;;;21.40;99.90;;;;;;5034374;28;20209;-74
2023/08/14 06:33:25;;;;;;;2.13;1.20;;;21.60;99.90;;;;;;5037992;28;20205;-72
2023/08/14 06:35:54;;;;;;;2.47;1.50;;;21.90;99.90;;;;;;5046174;28;20266;-74
2023/08/14 06:38:22;;;;;;;2.13;1.37;;;22.00;99.90;;;;;;5054576;28;20216;-75
2023/08/14 06:40:51;;;;;;;2.17;1.30;;;22.10;99.90;;;;;;5050253;28;20213;-74
2023/08/14 06:43:19;;;;;;;2.23;1.40;;;22.40;99.90;;;;;;5033530;28;20616;-74
2023/08/14 06:45:47;;;;;;;2.23;1.50;;;22.70;99.90;;;;;;5033842;28;20609;-74
2023/08/14 06:48:16;;;;;;;1.83;1.40;;;22.70;99.90;;;;;;5033947;28;20765;-73
2023/08/14 06:50:45;;;;;;;1.50;1.30;;;23.10;99.90;;;;;;5033993;28;20213;-73
2023/08/14 06:53:13;;;;;;;1.77;1.30;;;23.30;99.90;;;;;;5033275;28;20215;-73
2023/08/14 06:55:48;;;;;;;2.73;1.10;;;23.60;99.90;;;;;;5049459;28;20759;-73
2023/08/14 06:58:16;;;;;;;2.40;1.10;;;23.90;99.90;;;;;;5053911;28;20196;-74
2023/08/14 07:00:47;;;;;;;2.73;1.10;;;24.20;99.90;;;;;;5039623;28;20229;-74
2023/08/14 07:03:15;;;;;;;2.03;1.27;;;24.10;99.90;;;;;;5034193;28;20227;-73
2023/08/14 07:05:45;;;;;;;4.17;1.40;;;24.20;99.90;;;;;;5032119;28;20205;-73
2023/08/14 07:08:13;;;;;;;2.00;1.47;;;24.10;99.90;;;;;;5032066;28;20224;-74
2023/08/14 07:10:41;;;;;;;2.63;1.50;;;24.10;99.90;;;;;;5032114;28;20219;-73
2023/08/14 07:13:11;;;;;;;2.27;1.20;;;24.50;99.90;;;;;;5031078;28;20213;-73
2023/08/14 07:15:40;;;;;;;2.70;1.43;;;24.50;99.90;;;;;;5031436;28;20248;-74
2023/08/14 07:18:09;;;;;;;2.90;1.30;;;24.40;99.90;;;;;;5039652;28;20219;-75
2023/08/14 07:20:37;;;;;;;3.80;1.20;;;24.40;99.90;;;;;;5053589;28;20663;-74
2023/08/14 07:23:06;;;;;;;3.90;1.40;;;24.80;99.90;;;;;;5053390;28;20254;-72
2023/08/14 07:25:34;;;;;;;1.57;1.40;;;25.10;99.90;;;;;;5052716;28;20282;-74
2023/08/14 07:28:03;;;;;;;1.33;1.23;;;25.40;99.90;;;;;;5033077;28;20246;-73
2023/08/14 07:30:32;;;;;;;3.30;1.30;;;26.00;99.90;;;;;;5035096;28;20663;-75
2023/08/14 07:33:13;;;;;;;2.63;1.10;;;26.10;99.90;;;;;;5110571;27;20639;-73
2023/08/14 07:35:42;;;;;;;3.58;1.40;;;27.10;99.90;;;;;;5105177;28;20247;-74
2023/08/14 07:38:12;;;;;;;3.13;1.20;;;27.50;99.90;;;;;;5110314;28;20268;-74
2023/08/14 07:40:40;;;;;;;1.98;1.20;;;28.50;99.90;;;;;;5109727;28;20555;-74
2023/08/14 07:43:08;;;;;;;1.02;1.00;;;29.20;99.80;;;;;;5105421;28;20211;-74
2023/08/14 07:45:36;;;;;;;2.08;1.30;;;29.40;95.90;;;;;;5110627;28;20206;-75
2023/08/14 07:48:05;;;;;;;4.38;1.58;;;30.40;94.30;;;;;;5110047;28;20206;-74
2023/08/14 07:50:35;;;;;;;4.10;1.52;;;30.20;93.40;;;;;;5106366;28;20671;-75
2023/08/14 07:53:03;;;;;;;1.75;1.40;;;30.80;91.10;;;;;;5110246;28;20229;-75
2023/08/14 07:55:31;;;;;;;2.28;1.52;;;32.00;88.80;;;;;;5110023;28;20252;-75
2023/08/14 07:57:59;;;;;;;2.60;1.33;;;32.10;83.80;;;;;;5110082;28;20656;-75
2023/08/14 08:00:27;;;;;;;1.40;1.30;;;32.50;79.60;;;;;;5104083;28;20227;-75
2023/08/14 08:02:55;;;;;;;2.83;1.42;;;32.50;80.90;;;;;;5084824;28;20253;-77
2023/08/14 08:05:24;;;;;;;1.40;1.30;;;32.50;78.20;;;;;;5088805;28;20298;-79
2023/08/14 08:07:53;;;;;;;1.42;1.20;;;32.30;82.50;;;;;;5088520;28;20226;-77
2023/08/14 08:10:22;;;;;;;2.05;1.60;;;32.90;80.20;;;;;;5073708;28;20195;-76
2023/08/14 08:12:50;;;;;;;1.73;1.60;;;33.50;77.10;;;;;;5089032;28;20227;-73
2023/08/14 08:15:18;;;;;;;2.80;1.50;;;32.70;71.60;;;;;;5096529;28;20263;-73
2023/08/14 08:17:47;;;;;;;2.28;1.42;;;31.70;76.70;;;;;;5090288;28;20231;-77
2023/08/14 08:20:15;;;;;;;3.35;1.50;;;31.40;80.30;;;;;;5068216;28;20597;-76
2023/08/14 08:22:43;;;;;;;5.15;1.55;;;31.40;82.10;;;;;;5068338;28;20204;-77
2023/08/14 08:25:13;;;;;;;3.15;1.60;;;30.90;81.40;;;;;;5068536;28;20211;-77
2023/08/14 08:27:41;;;;;;;1.50;1.40;;;30.80;88.30;;;;;;5068313;28;20275;-75
2023/08/14 08:30:10;;;;;;;1.92;1.58;;;30.90;85.60;;;;;;5068554;28;20208;-76
2023/08/14 08:32:39;;;;;;;3.90;1.60;;;31.40;83.80;;;;;;5067639;28;20603;-75
2023/08/14 08:35:08;;;;;;;2.17;1.45;;;31.40;83.90;;;;;;5067791;28;20218;-76
2023/08/14 08:37:36;;;;;;;2.08;1.70;;;32.00;81.60;;;;;;5067931;28;20207;-75
2023/08/14 08:40:06;;;;;;;2.17;1.50;;;32.60;82.10;;;;;;5068586;28;20208;-74
2023/08/14 08:42:37;;;;;;;3.10;1.52;;;32.40;79.70;;;;;;5065049;28;20210;-75
2023/08/14 08:45:07;;;;;;;3.03;1.70;;;32.10;79.60;;;;;;5054158;28;20208;-75
2023/08/14 08:47:39;;;;;;;3.50;1.27;;;30.90;84.30;;;;;;5054599;28;20662;-75
2023/08/14 08:50:08;;;;;;;3.88;1.70;;;30.70;86.20;;;;;;5055467;28;20192;-77
2023/08/14 08:52:36;;;;;;;2.33;2.03;;;31.60;86.00;;;;;;5058737;28;20239;-78
2023/08/14 08:55:06;;;;;;;2.80;1.80;;;32.00;82.80;;;;;;5072347;28;20203;-75
2023/08/14 08:57:38;;;;;;;2.63;1.67;;;32.60;83.10;;;;;;5074464;28;20687;-74
2023/08/14 09:00:07;;;;;;;4.00;1.80;;;33.20;78.80;;;;;;5075134;28;20211;-75
2023/08/14 09:02:36;;;;;;;2.42;1.67;;;34.30;71.40;;;;;;5058151;28;20231;-76
2023/08/14 09:05:05;;;;;;;1.70;1.60;;;34.50;72.60;;;;;;5054578;28;20306;-75
2023/08/14 09:07:34;;;;;;;1.70;1.60;;;34.80;69.40;;;;;;5054481;28;20217;-76
2023/08/14 09:10:02;;;;;;;2.00;1.58;;;34.70;71.30;;;;;;5054110;28;20212;-75
2023/08/14 09:12:31;;;;;;;3.65;1.73;;;34.40;69.30;;;;;;5053876;28;20231;-75
2023/08/14 09:15:05;;;;;;;2.13;1.70;;;33.70;69.20;;;;;;5054041;28;20208;-77
2023/08/14 09:17:34;;;;;;;2.05;1.70;;;32.60;73.80;;;;;;5054175;28;20228;-76
2023/08/14 09:20:04;;;;;;;2.60;1.77;;;32.10;76.10;;;;;;5053770;28;20208;-77
2023/08/14 09:22:45;;;;;;;1.85;1.70;;;31.10;79.60;;;;;;5053758;28;20195;-74
2023/08/14 09:25:15;;;;;;;3.25;1.90;;;30.50;86.60;;;;;;5053852;28;20208;-76
2023/08/14 09:27:43;;;;;;;3.28;1.80;;;30.30;88.80;;;;;;5053808;28;20218;-77
2023/08/14 09:30:14;;;;;;;2.30;2.05;;;30.40;90.70;;;;;;5053839;28;20224;-77
2023/08/14 09:32:42;;;;;;;4.03;2.00;;;29.70;90.90;;;;;;5053387;28;20689;-77
2023/08/14 09:35:11;;;;;;;2.22;1.80;;;30.20;91.10;;;;;;5053845;28;20212;-76
2023/08/14 09:37:40;;;;;;;2.25;1.98;;;30.80;90.80;;;;;;5065745;28;20219;-75
2023/08/14 09:40:11;;;;;;;2.08;1.80;;;30.90;87.60;;;;;;5073421;28;20222;-76
2023/08/14 09:42:39;;;;;;;4.07;1.98;;;31.30;87.20;;;;;;5068296;28;20200;-77
2023/08/14 09:45:08;;;;;;;2.88;1.85;;;31.60;86.20;;;;;;5072435;28;20284;-78
2023/08/14 09:47:38;;;;;;;2.92;1.98;;;31.80;80.50;;;;;;5073484;28;20208;-74
2023/08/14 09:50:07;;;;;;;5.03;1.73;;;31.10;80.70;;;;;;5073212;28;20256;-74
2023/08/14 09:52:36;;;;;;;2.00;1.90;;;30.90;83.70;;;;;;5072719;28;20231;-75
2023/08/14 09:55:05;;;;;;;4.00;1.83;;;30.30;87.70;;;;;;5072162;28;20212;-75
2023/08/14 09:57:39;;;;;;;1.80;1.70;;;30.40;86.50;;;;;;5073271;28;20223;-76
2023/08/14 10:00:08;;;;;;;2.83;1.65;;;31.30;86.70;;;;;;5073014;28;20211;-76
2023/08/14 10:02:39;;;;;;;2.70;1.63;;;32.40;82.60;;;;;;5056251;28;20208;-76
2023/08/14 10:05:10;;;;;;;3.03;1.92;;;32.90;81.10;;;;;;5055702;28;20233;-76
2023/08/14 10:07:39;;;;;;;3.78;1.92;;;32.70;77.70;;;;;;5072458;28;20642;-76
2023/08/14 10:10:09;;;;;;;3.40;1.92;;;32.60;78.50;;;;;;5072856;28;20321;-77
2023/08/14 10:12:43;;;;;;;1.92;1.67;;;33.00;77.80;;;;;;5052593;28;20245;-75
2023/08/14 10:15:15;;;;;;;3.20;1.80;;;33.40;75.70;;;;;;5052816;28;20203;-76
2023/08/14 10:17:50;;;;;;;2.90;1.98;;;33.70;77.10;;;;;;5067096;28;20262;-76
2023/08/14 10:20:21;;;;;;;2.28;1.60;;;33.70;71.50;;;;;;5072039;28;20537;-75
2023/08/14 10:22:52;;;;;;;3.75;1.90;;;34.10;72.30;;;;;;5071095;28;20207;-75
2023/08/14 10:25:22;;;;;;;2.17;1.70;;;34.30;69.20;;;;;;5072888;28;20198;-74
2023/08/14 10:27:52;;;;;;;2.20;1.80;;;35.20;63.90;;;;;;5072948;28;20203;-75
2023/08/14 10:30:22;;;;;;;2.65;1.70;;;34.80;63.20;;;;;;5070788;28;20211;-74
2023/08/14 10:32:53;;;;;;;2.28;1.50;;;34.80;62.90;;;;;;5052041;28;20267;-73
2023/08/14 10:35:23;;;;;;;3.40;1.52;;;34.90;55.50;;;;;;5052877;28;20257;-75
2023/08/14 10:37:52;;;;;;;2.88;1.40;;;34.30;55.60;;;;;;5052934;28;20212;-78
2023/08/14 10:40:36;;;;;;;3.58;1.42;;;34.90;57.30;;;;;;5053269;28;20207;-76
2023/08/14 10:43:06;;;;;;;2.50;1.45;;;35.70;55.70;;;;;;5052310;28;20215;-77
2023/08/14 10:45:35;;;;;;;1.55;1.30;;;35.70;56.70;;;;;;5052281;28;20189;-75
2023/08/14 10:48:11;;;;;;;1.52;1.42;;;35.30;50.70;;;;;;5052394;28;20262;-75
2023/08/14 10:50:39;;;;;;;3.78;1.40;;;35.50;51.30;;;;;;5052144;28;20249;-75
2023/08/14 10:53:07;;;;;;;1.65;1.40;;;35.70;56.60;;;;;;5051992;28;20239;-75
2023/08/14 10:55:36;;;;;;;1.83;1.50;;;35.40;54.10;;;;;;5051988;28;20234;-74
2023/08/14 10:58:38;;;;;;;1.70;1.60;;;36.30;54.40;;;;;;5052175;28;20674;-73
2023/08/14 11:01:08;;;;;;;2.63;1.52;;;36.40;52.90;;;;;;5051985;28;20212;-75
2023/08/14 11:04:03;;;;;;;1.58;1.48;;;36.40;52.70;;;;;;5052063;28;20709;-74
2023/08/14 11:07:05;;;;;;;1.85;1.40;;;35.80;57.00;;;;;;5052008;28;20634;-76
2023/08/14 11:09:34;;;;;;;1.88;1.55;;;35.70;57.40;;;;;;5052567;28;20218;-74
2023/08/14 11:12:05;;;;;;;2.15;1.70;;;35.50;53.50;;;;;;5051378;28;20216;-73
2023/08/14 11:14:37;;;;;;;2.05;1.52;;;35.10;53.30;;;;;;5052139;28;20243;-75
2023/08/14 11:17:06;;;;;;;1.58;1.40;;;34.00;55.20;;;;;;5051561;28;20799;-75
2023/08/14 11:19:39;;;;;;;2.30;1.50;;;33.80;55.10;;;;;;5051988;28;20662;-78
2023/08/14 11:22:07;;;;;;;4.68;1.52;;;33.50;55.90;;;;;;5050791;28;20258;-77
2023/08/14 11:24:36;;;;;;;1.40;1.30;;;33.70;56.70;;;;;;5049218;28;20254;-75
2023/08/14 11:27:06;;;;;;;2.22;1.58;;;33.80;60.40;;;;;;5049325;28;20230;-75
2023/08/14 11:29:35;;;;;;;3.75;1.40;;;34.20;56.70;;;;;;5069933;28;20218;-74
2023/08/14 11:32:18;;;;;;;3.13;1.67;;;34.30;60.90;;;;;;5069734;28;20307;-76
2023/08/14 11:34:49;;;;;;;2.03;1.63;;;33.90;57.70;;;;;;5055286;28;20227;-75
2023/08/14 11:37:17;;;;;;;1.92;1.50;;;34.40;61.90;;;;;;5050310;28;20204;-73
2023/08/14 11:39:46;;;;;;;2.97;1.60;;;34.40;54.70;;;;;;5051911;28;20212;-75
2023/08/14 11:42:14;;;;;;;1.92;1.40;;;33.90;56.00;;;;;;5051357;28;20258;-76
2023/08/14 11:44:42;;;;;;;2.58;1.77;;;34.10;57.10;;;;;;5051695;28;20208;-77
2023/08/14 11:47:11;;;;;;;2.30;1.50;;;33.90;56.60;;;;;;5055046;28;20265;-76
2023/08/14 11:49:39;;;;;;;1.63;1.40;;;33.70;55.40;;;;;;5071994;28;20211;-74
2023/08/14 11:52:09;;;;;;;4.70;1.77;;;33.50;60.60;;;;;;5069171;28;20207;-76
2023/08/14 11:54:37;;;;;;;1.83;1.70;;;33.50;56.60;;;;;;5071323;28;20341;-76
2023/08/14 11:57:08;;;;;;;2.38;1.75;;;32.80;59.00;;;;;;5071941;28;20207;-74
2023/08/14 11:59:38;;;;;;;3.10;1.55;;;33.30;62.50;;;;;;5071895;28;20199;-75
2023/08/14 12:02:08;;;;;;;2.08;1.75;;;33.20;57.80;;;;;;5058463;28;20208;-76
2023/08/14 12:04:40;;;;;;;2.03;1.70;;;33.30;58.70;;;;;;5051343;28;20193;-76
2023/08/14 12:07:10;;;;;;;4.53;2.10;;;33.50;59.40;;;;;;5051397;28;20678;-76
2023/08/14 12:09:39;;;;;;;2.20;1.80;;;33.40;58.10;;;;;;5051718;28;20223;-76
2023/08/14 12:12:07;;;;;;;3.85;1.80;;;33.00;59.20;;;;;;5051694;28;20574;-74
2023/08/14 12:14:39;;;;;;;2.22;1.75;;;32.60;60.20;;;;;;5051382;28;20228;-75
2023/08/14 12:17:10;;;;;;;2.03;1.80;;;32.60;65.40;;;;;;5051358;28;20266;-76
2023/08/14 12:19:50;;;;;;;2.40;1.80;;;32.30;65.00;;;;;;5054792;28;20200;-75
2023/08/14 12:22:22;;;;;;;3.80;2.00;;;32.00;66.00;;;;;;5055087;28;20239;-73
2023/08/14 12:24:50;;;;;;;3.20;1.52;;;32.40;65.10;;;;;;5055311;28;20196;-72
2023/08/14 12:27:20;;;;;;;3.38;1.80;;;32.40;61.60;;;;;;5055174;28;20235;-75
2023/08/14 12:29:50;;;;;;;3.20;1.75;;;32.60;64.20;;;;;;5055301;28;20279;-77
2023/08/14 12:32:18;;;;;;;2.33;1.60;;;33.00;67.20;;;;;;5054639;28;20220;-76
2023/08/14 12:34:46;;;;;;;2.80;1.70;;;32.80;60.90;;;;;;5055256;28;20232;-75
2023/08/14 12:37:15;;;;;;;2.65;1.90;;;32.80;60.90;;;;;;5054996;28;20604;-75
2023/08/14 12:39:50;;;;;;;1.92;1.80;;;32.60;59.50;;;;;;5054614;28;20628;-74
2023/08/14 12:42:19;;;;;;;3.42;2.10;;;32.60;65.90;;;;;;5054658;28;20207;-77
2023/08/14 12:44:47;;;;;;;1.70;1.60;;;32.70;62.20;;;;;;5055127;28;20212;-75
2023/08/14 12:47:15;;;;;;;2.15;1.95;;;32.50;62.50;;;;;;5066606;28;20204;-76
2023/08/14 12:49:43;;;;;;;2.72;1.75;;;32.50;64.70;;;;;;5054749;28;20309;-75
2023/08/14 12:52:12;;;;;;;2.65;1.67;;;32.70;67.00;;;;;;5054312;28;20212;-75
2023/08/14 12:54:40;;;;;;;2.95;1.85;;;33.10;61.40;;;;;;5054675;28;20229;-76
2023/08/14 12:57:09;;;;;;;3.90;1.70;;;33.00;63.40;;;;;;5054276;28;20208;-75
2023/08/14 12:59:38;;;;;;;1.90;1.70;;;32.40;59.90;;;;;;5054331;28;20208;-74